Time;durP1;ratioP1;P1;durP2;ratioP2;P2;SDS_P1;SDS_P2;PMS_P1;PMS_P2;Temp;Humidity;BMP_temperature;BMP_pressure;BME280_temperature;BME280_humidity;BME280_pressure;Samples;Min_cycle;Max_cycle;Signal;HPM_P1;HPM_P2
2021/10/27 00:01:14;;;;;;;6.57;1.40;;;;;;;11.99;100.00;101780.28;6225174;28;20185;-77
2021/10/27 00:04:16;;;;;;;2.80;1.67;;;;;;;11.98;100.00;101781.19;6224648;28;20046;-76
2021/10/27 00:07:18;;;;;;;3.40;1.80;;;;;;;11.96;100.00;101783.91;6224935;28;20060;-76
2021/10/27 00:10:19;;;;;;;3.72;1.98;;;;;;;11.99;100.00;101793.44;6224280;28;20180;-76
2021/10/27 00:13:22;;;;;;;3.00;2.20;;;;;;;11.96;100.00;101786.53;6224555;28;20057;-76
2021/10/27 00:16:23;;;;;;;3.75;2.33;;;;;;;11.99;100.00;101785.53;6224690;28;20520;-76
2021/10/27 00:19:25;;;;;;;5.68;2.28;;;;;;;11.97;100.00;101779.50;6224704;28;20054;-77
2021/10/27 00:22:26;;;;;;;5.53;2.05;;;;;;;11.96;100.00;101783.91;6224539;28;20445;-76
2021/10/27 00:25:28;;;;;;;4.00;2.67;;;;;;;11.93;100.00;101774.34;6224635;28;20076;-76
2021/10/27 00:28:31;;;;;;;4.72;2.00;;;;;;;11.90;100.00;101779.75;6224565;28;20061;-76
2021/10/27 00:31:32;;;;;;;4.00;2.25;;;;;;;11.93;100.00;101790.16;6223868;28;20054;-76
2021/10/27 00:34:34;;;;;;;5.50;3.15;;;;;;;11.90;100.00;101795.56;6200038;28;20069;-76
2021/10/27 00:37:35;;;;;;;3.65;2.65;;;;;;;11.90;100.00;101785.03;6199478;28;20046;-77
2021/10/27 00:40:37;;;;;;;4.53;2.83;;;;;;;11.88;100.00;101794.75;6199655;28;20058;-76
2021/10/27 00:43:40;;;;;;;5.20;3.22;;;;;;;11.87;100.00;101790.41;6199421;28;20103;-76
2021/10/27 00:46:41;;;;;;;5.57;3.03;;;;;;;11.92;100.00;101791.06;6200055;28;20057;-76
2021/10/27 00:49:44;;;;;;;6.85;3.67;;;;;;;11.91;100.00;101793.78;6199507;28;20050;-76
2021/10/27 00:52:46;;;;;;;10.35;3.35;;;;;;;11.92;100.00;101795.50;6199773;28;20452;-75
2021/10/27 00:55:48;;;;;;;5.40;3.10;;;;;;;11.89;100.00;101807.00;6199240;28;20057;-75
2021/10/27 00:58:51;;;;;;;7.55;3.03;;;;;;;11.93;100.00;101816.50;6199389;28;20082;-76
2021/10/27 01:01:53;;;;;;;4.57;3.42;;;;;;;11.90;100.00;101807.88;6201390;28;20054;-76
2021/10/27 01:04:54;;;;;;;3.83;2.78;;;;;;;11.93;100.00;101807.72;6223598;28;20068;-76
2021/10/27 01:07:55;;;;;;;8.55;3.20;;;;;;;11.93;100.00;101807.72;6223568;28;20527;-76
2021/10/27 01:10:57;;;;;;;9.85;4.00;;;;;;;11.95;100.00;101810.31;6223438;28;20054;-76
2021/10/27 01:13:59;;;;;;;8.68;3.53;;;;;;;11.92;100.00;101806.03;6223653;28;20053;-77
2021/10/27 01:17:01;;;;;;;10.48;3.45;;;;;;;11.89;100.00;101809.63;6223310;28;20053;-76
2021/10/27 01:20:05;;;;;;;7.50;3.63;;;;;;;11.93;100.00;101805.94;6223600;28;20054;-76
2021/10/27 01:23:07;;;;;;;6.47;3.50;;;;;;;11.94;100.00;101809.44;6223036;28;20049;-75
2021/10/27 01:26:09;;;;;;;6.53;3.38;;;;;;;11.87;100.00;101795.69;6223424;28;20061;-76
2021/10/27 01:29:10;;;;;;;6.53;3.38;;;;;;;11.91;100.00;101794.63;6223465;28;20061;-76
2021/10/27 01:32:21;;;;;;;4.75;3.33;;;;;;;11.93;100.00;101799.84;6222580;28;20045;-76
2021/10/27 01:35:24;;;;;;;8.63;4.00;;;;;;;11.93;100.00;101790.16;6198860;28;20057;-76
2021/10/27 01:38:25;;;;;;;8.90;3.97;;;;;;;11.92;100.00;101785.81;6198754;28;20046;-76
2021/10/27 01:41:27;;;;;;;8.05;3.97;;;;;;;11.93;100.00;101791.94;6198917;28;20057;-76
2021/10/27 01:44:29;;;;;;;8.73;4.68;;;;;;;11.93;100.00;101784.03;6197954;28;20054;-78
2021/10/27 01:47:31;;;;;;;11.50;4.40;;;;;;;11.94;100.00;101785.72;6197433;28;20058;-76
2021/10/27 01:50:34;;;;;;;8.70;5.00;;;;;;;11.89;100.00;101771.91;6198110;28;20216;-77
2021/10/27 01:53:35;;;;;;;9.77;4.97;;;;;;;11.91;100.00;101777.97;6198027;28;20052;-77
2021/10/27 01:56:37;;;;;;;8.90;5.18;;;;;;;11.95;100.00;101770.81;6198134;28;20058;-78
2021/10/27 01:59:38;;;;;;;8.73;3.88;;;;;;;11.91;100.00;101773.56;6198277;28;20057;-76
2021/10/27 02:02:40;;;;;;;13.43;5.38;;;;;;;11.90;100.00;101774.50;6198195;28;20069;-76
2021/10/27 02:05:43;;;;;;;10.38;4.22;;;;;;;11.88;100.00;101773.69;6221038;28;20179;-77
2021/10/27 02:08:44;;;;;;;7.05;3.90;;;;;;;11.87;100.00;101776.41;6222277;28;20054;-76
2021/10/27 02:11:46;;;;;;;10.52;5.45;;;;;;;11.91;100.00;101777.97;6222398;28;20054;-76
2021/10/27 02:14:47;;;;;;;9.52;5.03;;;;;;;11.87;100.00;101777.25;6222076;28;20132;-76
2021/10/27 02:17:49;;;;;;;11.65;5.32;;;;;;;11.97;100.00;101779.50;6222128;28;20054;-77
2021/10/27 02:20:52;;;;;;;13.07;5.03;;;;;;;11.90;100.00;101776.28;6222167;28;20481;-77
2021/10/27 02:23:54;;;;;;;10.27;5.45;;;;;;;11.91;100.00;101772.72;6221831;28;20063;-76
2021/10/27 02:26:55;;;;;;;13.25;6.60;;;;;;;11.87;100.00;101774.63;6222111;28;20057;-77
2021/10/27 02:29:56;;;;;;;9.52;5.20;;;;;;;11.88;100.00;101778.94;6222576;28;20060;-77
2021/10/27 02:32:58;;;;;;;14.18;5.22;;;;;;;11.89;100.00;101778.03;6222649;28;20056;-76
2021/10/27 02:36:00;;;;;;;15.07;5.70;;;;;;;11.88;100.00;101775.47;6221341;28;20057;-76
2021/10/27 02:39:02;;;;;;;12.73;5.68;;;;;;;11.85;100.00;101778.22;6222541;28;20054;-76
2021/10/27 02:42:03;;;;;;;15.50;6.80;;;;;;;11.85;100.00;101771.16;6222576;28;20505;-77
2021/10/27 02:45:06;;;;;;;9.90;5.57;;;;;;;11.85;100.00;101765.06;6222176;28;20485;-77
2021/10/27 02:48:11;;;;;;;11.02;5.85;;;;;;;11.86;100.00;101765.00;6222122;28;20054;-77
2021/10/27 02:51:14;;;;;;;12.98;5.97;;;;;;;11.92;100.00;101761.25;6238025;22;20042;-79
2021/10/27 02:54:15;;;;;;;12.00;6.72;;;;;;;11.91;100.00;101773.56;6223320;28;20046;-80
2021/10/27 02:57:16;;;;;;;10.40;5.93;;;;;;;11.89;100.00;101761.38;6223368;28;20692;-80
2021/10/27 03:00:18;;;;;;;11.30;5.28;;;;;;;11.85;100.00;101765.06;6242516;28;20050;-80
2021/10/27 03:03:19;;;;;;;12.25;5.55;;;;;;;11.85;100.00;101765.91;6252915;28;20053;-80
2021/10/27 03:06:22;;;;;;;9.68;5.35;;;;;;;11.90;100.00;101763.97;6274501;28;20055;-79
2021/10/27 03:09:24;;;;;;;11.00;5.72;;;;;;;11.97;100.00;101772.44;6276593;28;20048;-80
2021/10/27 03:12:25;;;;;;;12.05;6.72;;;;;;;11.89;100.00;101778.03;6273916;28;20045;-80
2021/10/27 03:15:27;;;;;;;14.70;5.82;;;;;;;11.91;100.00;101775.34;6252573;28;20053;-79
2021/10/27 03:18:28;;;;;;;11.13;6.22;;;;;;;11.96;100.00;101775.16;6251664;28;20544;-80
2021/10/27 03:21:31;;;;;;;10.88;6.20;;;;;;;11.90;100.00;101779.75;6258630;28;20071;-79
2021/10/27 03:24:32;;;;;;;10.30;5.20;;;;;;;11.93;100.00;101769.06;6276231;28;20045;-79
2021/10/27 03:27:34;;;;;;;8.77;5.25;;;;;;;11.91;100.00;101770.06;6271553;28;20056;-79
2021/10/27 03:30:35;;;;;;;8.77;5.40;;;;;;;11.87;100.00;101768.50;6250380;28;20054;-80
2021/10/27 03:33:36;;;;;;;10.40;5.72;;;;;;;11.89;100.00;101764.00;6249050;28;20061;-79
2021/10/27 03:36:39;;;;;;;10.23;5.60;;;;;;;11.86;100.00;101772.06;6251346;28;20049;-79
2021/10/27 03:39:41;;;;;;;10.27;4.95;;;;;;;11.89;100.00;101778.03;6252036;28;20053;-79
2021/10/27 03:42:42;;;;;;;10.77;5.93;;;;;;;11.90;100.00;101771.00;6251541;28;20049;-80
2021/10/27 03:45:43;;;;;;;12.20;5.53;;;;;;;11.89;100.00;101782.44;6250628;28;20140;-80
2021/10/27 03:48:45;;;;;;;9.10;4.82;;;;;;;11.87;100.00;101769.34;6251439;28;20076;-79
2021/10/27 03:51:48;;;;;;;12.75;5.55;;;;;;;11.92;100.00;101770.00;6250528;28;20501;-80
2021/10/27 03:54:49;;;;;;;10.45;5.95;;;;;;;11.93;100.00;101779.59;6250758;28;20045;-80
2021/10/27 03:57:51;;;;;;;12.70;6.10;;;;;;;11.93;100.00;101769.06;6250558;28;20046;-80
2021/10/27 04:00:52;;;;;;;14.48;5.10;;;;;;;11.95;100.00;101778.72;6250566;28;20053;-80
2021/10/27 04:03:53;;;;;;;13.00;5.47;;;;;;;11.93;100.00;101779.59;6250781;28;20045;-79
2021/10/27 04:06:56;;;;;;;10.32;5.75;;;;;;;11.93;100.00;101791.94;6250905;28;20056;-79
2021/10/27 04:09:57;;;;;;;11.35;6.03;;;;;;;11.94;100.00;101785.72;6248905;28;20424;-79
2021/10/27 04:12:59;;;;;;;10.32;5.80;;;;;;;11.88;100.00;101793.91;6249614;28;20052;-80
2021/10/27 04:16:00;;;;;;;15.70;6.53;;;;;;;11.87;100.00;101787.78;6250218;28;20057;-79
2021/10/27 04:19:02;;;;;;;16.55;7.07;;;;;;;11.92;100.00;101779.69;6249733;28;20053;-80
2021/10/27 04:22:05;;;;;;;12.88;6.28;;;;;;;11.98;100.00;101782.06;6249913;28;20050;-80
2021/10/27 04:25:09;;;;;;;10.60;5.60;;;;;;;11.91;100.00;101788.50;6248917;28;20420;-80
2021/10/27 04:28:11;;;;;;;15.63;6.80;;;;;;;11.88;100.00;101789.50;6248837;28;20049;-81
2021/10/27 04:31:13;;;;;;;13.32;6.25;;;;;;;11.90;100.00;101792.94;6257448;28;20420;-80
2021/10/27 04:34:14;;;;;;;11.32;6.30;;;;;;;11.87;100.00;101790.41;6258567;28;20050;-79
2021/10/27 04:37:17;;;;;;;11.48;5.88;;;;;;;11.88;100.00;101800.03;6273296;28;20060;-79
2021/10/27 04:40:20;;;;;;;14.88;6.88;;;;;;;11.92;100.00;101804.25;6266795;28;20053;-80
2021/10/27 04:43:21;;;;;;;13.40;6.10;;;;;;;11.92;100.00;101798.97;6267748;28;20053;-80
2021/10/27 04:46:23;;;;;;;10.75;6.38;;;;;;;11.95;100.00;101807.69;6273226;28;20059;-80
2021/10/27 04:49:25;;;;;;;10.25;5.78;;;;;;;11.91;100.00;101804.31;6273018;28;20052;-80
2021/10/27 04:52:27;;;;;;;14.55;6.80;;;;;;;11.91;100.00;101810.44;6268552;28;20063;-79
2021/10/27 04:55:29;;;;;;;13.05;7.28;;;;;;;11.94;100.00;101817.34;6265335;28;20049;-80
2021/10/27 04:58:30;;;;;;;12.32;6.65;;;;;;;11.92;100.00;101806.03;6275116;28;20061;-80
2021/10/27 05:01:32;;;;;;;15.93;6.88;;;;;;;11.91;100.00;101812.22;6269530;28;20053;-80
2021/10/27 05:04:33;;;;;;;14.45;7.78;;;;;;;11.86;100.00;101820.31;6264022;28;20056;-80
2021/10/27 05:07:36;;;;;;;12.55;6.72;;;;;;;11.86;100.00;101803.66;6262871;28;20155;-80
2021/10/27 05:10:37;;;;;;;12.85;6.97;;;;;;;11.89;100.00;101806.16;6247565;28;20053;-79
2021/10/27 05:13:39;;;;;;;14.73;7.18;;;;;;;11.87;100.00;101803.59;6247634;28;20060;-79
2021/10/27 05:16:40;;;;;;;14.45;7.10;;;;;;;11.86;100.00;101801.88;6247986;28;20085;-80
2021/10/27 05:19:43;;;;;;;15.38;7.43;;;;;;;11.85;100.00;101809.81;6247720;28;20416;-80
2021/10/27 05:22:46;;;;;;;18.52;8.10;;;;;;;11.86;100.00;101806.28;6247809;28;20049;-80
2021/10/27 05:25:47;;;;;;;16.85;7.70;;;;;;;11.87;100.00;101798.31;6247477;28;20045;-79
2021/10/27 05:28:49;;;;;;;17.48;8.02;;;;;;;11.81;100.00;101793.28;6247853;28;20717;-80
2021/10/27 05:31:50;;;;;;;12.18;7.30;;;;;;;11.78;100.00;101801.31;6248569;28;20056;-81
2021/10/27 05:34:51;;;;;;;14.65;7.60;;;;;;;11.77;100.00;101804.00;6247414;28;20049;-80
2021/10/27 05:37:55;;;;;;;15.25;7.65;;;;;;;11.78;100.00;101810.97;6247430;28;20049;-80
2021/10/27 05:40:56;;;;;;;15.20;7.18;;;;;;;11.78;100.00;101810.97;6247115;28;20049;-80
2021/10/27 05:43:58;;;;;;;14.90;7.90;;;;;;;11.80;100.00;101809.97;6247069;28;20052;-80
2021/10/27 05:46:59;;;;;;;14.43;7.57;;;;;;;11.80;100.00;101824.94;6247367;28;20475;-80
2021/10/27 05:50:20;;;;;;;21.38;8.15;;;;;;;11.79;100.00;101826.72;6247034;28;20053;-80
2021/10/27 05:56:41;;;;;;;13.27;7.05;;;;;;;11.86;100.00;101836.13;6246981;28;20053;-80
2021/10/27 05:59:44;;;;;;;13.85;7.03;;;;;;;11.77;100.00;101839.09;6252007;28;20049;-79
2021/10/27 06:02:45;;;;;;;19.30;7.18;;;;;;;11.76;100.00;101832.09;6271592;28;20049;-80
2021/10/27 06:05:46;;;;;;;14.70;7.10;;;;;;;11.74;100.00;101835.72;6271434;28;20041;-81
2021/10/27 06:08:49;;;;;;;13.88;7.43;;;;;;;11.73;100.00;101836.66;6271415;28;20049;-80
2021/10/27 06:11:50;;;;;;;13.65;6.50;;;;;;;11.75;100.00;101851.47;6272147;28;20060;-80
2021/10/27 06:14:52;;;;;;;14.25;7.90;;;;;;;11.76;100.00;101845.25;6271237;28;20053;-80
2021/10/27 06:17:53;;;;;;;12.65;6.47;;;;;;;11.74;100.00;101852.38;6271803;28;20055;-80
2021/10/27 06:20:55;;;;;;;14.50;6.88;;;;;;;11.76;100.00;101836.50;6271341;28;20056;-80
2021/10/27 06:23:58;;;;;;;12.55;6.35;;;;;;;11.76;100.00;101841.78;6271106;28;20056;-80
2021/10/27 06:27:00;;;;;;;14.32;7.05;;;;;;;11.78;100.00;101842.59;6254714;28;20054;-80
2021/10/27 06:30:06;;;;;;;15.40;6.95;;;;;;;11.77;100.00;101843.50;6247214;28;20056;-80
2021/10/27 06:33:19;;;;;;;10.50;6.05;;;;;;;11.73;100.00;101845.41;6246969;28;20054;-80
2021/10/27 06:36:25;;;;;;;14.70;7.70;;;;;;;11.75;100.00;101837.44;6251290;28;20088;-79
2021/10/27 06:49:24;;;;;;;14.38;7.25;;;;;;;11.76;100.00;101874.22;6251601;28;20061;-81
2021/10/27 06:52:25;;;;;;;11.57;6.45;;;;;;;11.77;100.00;101872.47;6251407;28;20049;-79
2021/10/27 06:55:28;;;;;;;13.45;6.35;;;;;;;11.76;100.00;101878.66;6250761;28;20493;-79
2021/10/27 06:58:31;;;;;;;12.35;6.88;;;;;;;11.81;100.00;101869.66;6258786;28;20049;-79
2021/10/27 07:01:51;;;;;;;13.70;6.60;;;;;;;11.82;100.00;101873.16;6276552;28;20075;-78
2021/10/27 07:05:12;;;;;;;12.82;6.93;;;;;;;11.81;100.00;101871.41;6276317;28;20045;-79
2021/10/27 07:15:05;;;;;;;16.23;6.78;;;;;;;11.81;100.00;101884.56;6266261;28;20053;-80
2021/10/27 07:18:07;;;;;;;14.85;6.28;;;;;;;11.81;100.00;101885.47;6275543;28;20053;-80
2021/10/27 07:21:08;;;;;;;10.48;6.40;;;;;;;11.85;100.00;101887.06;6275651;28;20049;-80
2021/10/27 07:24:09;;;;;;;14.05;6.65;;;;;;;11.89;100.00;101893.06;6274989;28;20507;-80
2021/10/27 07:27:13;;;;;;;9.75;5.70;;;;;;;11.86;100.00;101893.22;6272368;28;20041;-80
2021/10/27 07:30:14;;;;;;;14.68;6.80;;;;;;;11.86;100.00;101895.84;6260557;28;20060;-80
2021/10/27 07:33:15;;;;;;;13.25;6.13;;;;;;;11.92;100.00;101896.44;6275274;28;20045;-80
2021/10/27 07:36:29;;;;;;;11.32;6.93;;;;;;;11.92;100.00;101901.72;6275018;28;20048;-80
2021/10/27 07:42:53;;;;;;;11.45;5.65;;;;;;;11.95;100.00;101906.00;6275181;28;20492;-79
2021/10/27 07:45:54;;;;;;;14.95;6.43;;;;;;;11.97;100.00;101906.78;6274581;28;20076;-80
2021/10/27 07:48:56;;;;;;;11.00;5.93;;;;;;;11.95;100.00;101903.38;6274657;28;20045;-80
2021/10/27 07:51:57;;;;;;;12.23;6.88;;;;;;;12.02;100.00;101894.28;6275200;28;20049;-80
2021/10/27 07:54:59;;;;;;;10.65;6.82;;;;;;;12.00;100.00;101903.19;6274660;28;20052;-80
2021/10/27 07:58:02;;;;;;;12.50;6.55;;;;;;;12.02;100.00;101891.66;6258883;28;20053;-80
2021/10/27 08:01:03;;;;;;;14.13;7.35;;;;;;;12.08;100.00;101906.34;6249846;28;20045;-80
2021/10/27 08:04:05;;;;;;;13.27;6.10;;;;;;;12.11;100.00;101903.59;6249484;28;20045;-79
2021/10/27 08:07:06;;;;;;;15.88;7.28;;;;;;;12.12;100.00;101911.44;6249737;28;20489;-80
2021/10/27 08:10:09;;;;;;;12.18;6.55;;;;;;;12.16;100.00;101906.91;6249880;28;20080;-80
2021/10/27 08:13:12;;;;;;;14.95;8.38;;;;;;;12.14;100.00;101912.25;6250605;28;20059;-80
2021/10/27 08:16:13;;;;;;;15.05;7.47;;;;;;;12.16;100.00;101907.75;6249106;28;20053;-80
2021/10/27 08:19:14;;;;;;;15.40;6.35;;;;;;;12.16;100.00;101918.28;6249550;28;20416;-79
2021/10/27 08:22:16;;;;;;;13.32;7.28;;;;;;;12.23;100.00;101911.00;6249092;28;20042;-80
2021/10/27 08:25:27;;;;;;;14.75;7.38;;;;;;;12.26;100.00;101918.75;6249411;28;20050;-79
2021/10/27 08:28:36;;;;;;;11.73;7.30;;;;;;;12.28;100.00;101916.09;6224375;28;20049;-80
2021/10/27 08:31:40;;;;;;;12.73;7.30;;;;;;;12.32;100.00;101920.31;6224727;28;20056;-79
2021/10/27 08:34:46;;;;;;;13.90;7.32;;;;;;;12.37;100.00;101918.34;6224154;28;20060;-79
2021/10/27 08:37:50;;;;;;;13.18;7.32;;;;;;;12.41;100.00;101925.19;6224333;28;20161;-79
2021/10/27 08:40:52;;;;;;;11.80;7.15;;;;;;;12.47;100.00;101926.72;6224219;28;20057;-79
2021/10/27 08:43:55;;;;;;;14.63;6.72;;;;;;;12.47;100.00;101927.56;6224086;28;20050;-79
2021/10/27 08:46:57;;;;;;;13.05;6.85;;;;;;;12.53;100.00;101934.34;6270965;28;20514;-80
2021/10/27 08:50:00;;;;;;;10.90;6.55;;;;;;;12.55;100.00;101941.28;6283705;22;20065;-77
2021/10/27 08:53:02;;;;;;;12.45;6.95;;;;;;;12.63;100.00;101928.63;6249792;28;20076;-78
2021/10/27 08:56:05;;;;;;;10.27;5.60;;;;;;;12.67;100.00;101938.13;6225962;28;20053;-78
2021/10/27 08:59:13;;;;;;;11.20;5.03;;;;;;;12.69;100.00;101930.16;6234715;28;20048;-78
2021/10/27 09:02:45;;;;;;;9.77;5.38;;;;;;;12.70;100.00;101935.34;6271521;28;20123;-77
2021/10/27 09:05:56;;;;;;;7.47;4.57;;;;;;;12.81;100.00;101942.81;6261276;28;20060;-77
2021/10/27 09:15:57;;;;;;;6.03;3.83;;;;;;;12.90;100.00;101941.56;6281538;28;20056;-77
2021/10/27 09:36:01;;;;;;;3.75;2.40;;;;;;;13.15;100.00;101936.88;6273132;28;20120;-76
2021/10/27 09:42:39;;;;;;;4.60;2.42;;;;;;;13.26;100.00;101938.22;6246533;28;20167;-77
2021/10/27 10:05:47;;;;;;;3.38;2.38;;;;;;;13.43;100.00;101956.78;6272189;28;20064;-78
2021/10/27 10:08:50;;;;;;;3.17;2.40;;;;;;;13.47;100.00;101953.06;6274885;28;20215;-79
2021/10/27 10:11:51;;;;;;;3.60;2.85;;;;;;;13.39;100.00;101958.69;6258815;28;20072;-78
2021/10/27 10:14:53;;;;;;;4.95;2.55;;;;;;;13.39;100.00;101957.84;6244267;28;20510;-78
2021/10/27 10:17:56;;;;;;;3.00;2.30;;;;;;;13.49;100.00;101948.59;6253729;28;20049;-78
2021/10/27 10:21:00;;;;;;;9.13;2.63;;;;;;;13.48;100.00;101965.34;6228249;28;20057;-80
2021/10/27 10:24:31;;;;;;;4.18;3.25;;;;;;;13.60;100.00;101963.94;6229879;28;20050;-82
2021/10/27 10:27:39;;;;;;;3.10;2.30;;;;;;;13.60;100.00;101964.78;6234195;28;20049;-75
2021/10/27 10:30:41;;;;;;;1.90;1.67;;;;;;;13.51;100.00;101949.38;6265329;28;20053;-81
2021/10/27 10:33:45;;;;;;;5.80;2.67;;;;;;;13.51;100.00;101949.38;6267756;28;20053;-79
2021/10/27 10:36:48;;;;;;;3.50;1.63;;;;;;;13.55;100.00;101948.31;6264978;28;20049;-80
2021/10/27 10:39:52;;;;;;;3.53;1.60;;;;;;;13.54;100.00;101956.31;6253878;28;20493;-79
2021/10/27 10:43:01;;;;;;;4.05;2.05;;;;;;;13.63;100.00;101945.31;6270469;28;20053;-80
2021/10/27 10:55:28;;;;;;;1.98;1.35;;;;;;;13.52;100.00;101955.50;6280542;28;20044;-80
2021/10/27 10:56:59;;;;;;;2.72;1.50;;;;;;;13.53;100.00;101952.78;6254434;28;20050;-77
2021/10/27 11:00:49;;;;;;;2.95;1.50;;;;;;;13.56;100.00;101951.78;6255759;28;20049;-79
2021/10/27 11:24:29;;;;;;;4.93;1.52;;;;;;;13.74;100.00;101932.44;6279369;28;20124;-80
2021/10/27 11:37:16;;;;;;;1.13;0.82;;;;;;;13.82;100.00;101934.72;6266060;28;20049;-79
2021/10/27 11:38:13;;;;;;;0.77;0.70;;;;;;;13.90;100.00;101927.28;6255530;28;20045;-80
2021/10/27 11:41:20;;;;;;;0.98;0.73;;;;;;;13.82;100.00;101942.66;6270931;28;20176;-79
2021/10/27 11:44:43;;;;;;;1.23;0.68;;;;;;;13.81;100.00;101925.94;6233928;28;20136;-78
2021/10/27 11:47:47;;;;;;;1.77;1.27;;;;;;;13.85;100.00;101924.88;6238681;28;20062;-81
2021/10/27 11:50:49;;;;;;;1.50;0.75;;;;;;;13.92;100.00;101922.78;6236324;28;20116;-78
2021/10/27 11:53:50;;;;;;;1.02;0.70;;;;;;;13.90;100.00;101912.28;6235824;28;20050;-81
2021/10/27 11:56:53;;;;;;;0.82;0.60;;;;;;;13.96;100.00;101919.06;6240033;28;20413;-79
2021/10/27 11:59:56;;;;;;;0.90;0.60;;;;;;;14.33;100.00;101915.44;6232720;28;20489;-81
2021/10/27 12:03:03;;;;;;;0.90;0.70;;;;;;;14.77;100.00;101907.06;6230741;28;20053;-80
2021/10/27 12:06:07;;;;;;;1.17;0.63;;;;;;;14.97;100.00;101912.13;6228541;28;20045;-75
2021/10/27 12:12:48;;;;;;;3.63;0.98;;;;;;;15.16;99.02;101908.50;6251619;28;20045;-80
2021/10/27 12:16:04;;;;;;;0.70;0.60;;;;;;;15.25;98.67;101905.34;6256615;28;20103;-79
2021/10/27 12:19:12;;;;;;;0.47;0.40;;;;;;;15.21;97.42;101902.03;6259947;28;20060;-79
2021/10/27 12:22:21;;;;;;;1.13;0.73;;;;;;;15.14;98.60;101897.16;6249039;28;20053;-79
2021/10/27 12:25:23;;;;;;;0.60;0.60;;;;;;;15.02;97.77;101893.34;6248668;28;20394;-78
2021/10/27 12:28:29;;;;;;;1.40;0.63;;;;;;;14.90;99.78;101892.25;6248287;28;20057;-77
2021/10/27 12:31:32;;;;;;;1.13;0.68;;;;;;;14.96;97.82;101891.06;6248858;28;20060;-78
2021/10/27 12:34:35;;;;;;;1.02;0.55;;;;;;;14.84;97.78;101889.03;6248911;28;20184;-77
2021/10/27 12:37:40;;;;;;;1.02;0.50;;;;;;;14.78;97.49;101895.53;6249309;28;20050;-77
2021/10/27 12:40:43;;;;;;;0.73;0.60;;;;;;;14.73;99.03;101884.31;6271131;28;20502;-79
2021/10/27 12:43:45;;;;;;;1.52;0.80;;;;;;;14.64;99.28;101882.16;6273985;28;20049;-78
2021/10/27 12:46:48;;;;;;;2.10;0.90;;;;;;;14.60;100.00;101884.13;6273698;28;20049;-78
2021/10/27 12:50:02;;;;;;;4.60;1.58;;;;;;;14.58;100.00;101878.06;6273534;28;20056;-78
2021/10/27 12:53:08;;;;;;;0.82;0.65;;;;;;;14.61;100.00;101882.31;6273243;28;20052;-78
2021/10/27 12:56:12;;;;;;;1.27;0.70;;;;;;;14.61;100.00;101871.72;6273550;28;20134;-78
2021/10/27 12:59:15;;;;;;;0.93;0.70;;;;;;;14.60;100.00;101870.88;6273060;28;20198;-78
2021/10/27 13:02:26;;;;;;;2.08;1.08;;;;;;;14.59;100.00;101870.97;6273681;28;20052;-78
2021/10/27 13:05:31;;;;;;;1.95;0.98;;;;;;;14.62;100.00;101871.63;6272808;28;20135;-79
2021/10/27 13:08:52;;;;;;;2.05;0.85;;;;;;;14.63;100.00;101873.38;6271943;28;20055;-77
2021/10/27 13:15:23;;;;;;;3.80;0.70;;;;;;;14.65;100.00;101874.13;6257208;28;20132;-78
2021/10/27 13:18:46;;;;;;;3.33;0.98;;;;;;;14.64;100.00;101871.59;6248725;28;20049;-78
2021/10/27 13:22:01;;;;;;;1.95;0.63;;;;;;;14.65;100.00;101870.63;6248385;28;20061;-79
2021/10/27 13:31:43;;;;;;;0.85;0.75;;;;;;;14.77;100.00;101867.34;6273239;28;20052;-79
2021/10/27 13:34:45;;;;;;;2.03;0.82;;;;;;;14.71;100.00;101863.22;6272697;28;20138;-79
2021/10/27 13:37:47;;;;;;;2.78;0.80;;;;;;;14.75;99.90;101866.56;6271279;28;20041;-78
2021/10/27 13:40:48;;;;;;;2.83;0.82;;;;;;;14.73;100.00;101860.50;6273138;28;20052;-79
2021/10/27 13:43:53;;;;;;;1.23;0.80;;;;;;;14.74;100.00;101861.38;6256456;28;20057;-78
2021/10/27 13:47:07;;;;;;;0.52;0.52;;;;;;;14.71;100.00;101855.28;6247679;28;20416;-78
2021/10/27 14:06:47;;;;;;;0.90;0.63;;;;;;;14.69;100.00;101870.41;6262949;28;20041;-78
2021/10/27 14:09:52;;;;;;;2.00;0.90;;;;;;;14.72;100.00;101869.41;6272874;28;20515;-78
2021/10/27 14:12:56;;;;;;;2.70;0.73;;;;;;;14.69;100.00;101869.56;6272232;28;20056;-77
2021/10/27 14:16:21;;;;;;;1.88;0.77;;;;;;;14.70;100.00;101866.81;6272234;28;20044;-78
2021/10/27 14:19:35;;;;;;;1.48;1.10;;;;;;;14.70;99.86;101863.31;6261342;28;20049;-77
2021/10/27 14:23:04;;;;;;;0.80;0.60;;;;;;;14.70;99.83;101860.66;6261364;28;20072;-79
2021/10/27 14:39:37;;;;;;;4.45;0.80;;;;;;;14.74;98.89;101845.50;6247324;28;20497;-77
2021/10/27 15:19:49;;;;;;;2.78;1.17;;;;;;;14.57;98.44;101819.91;6253682;28;20076;-83
2021/10/27 15:23:00;;;;;;;1.35;0.93;;;;;;;14.55;98.59;101820.00;6253509;28;20046;-83
2021/10/27 15:29:27;;;;;;;1.30;1.00;;;;;;;14.52;98.46;101809.56;6253075;28;20049;-84
2021/10/27 15:32:40;;;;;;;1.70;1.48;;;;;;;14.50;98.34;101808.81;6253553;28;20190;-84
2021/10/27 15:35:56;;;;;;;1.95;1.20;;;;;;;14.51;99.05;101810.53;6253968;28;20065;-83
2021/10/27 15:42:32;;;;;;;2.45;1.30;;;;;;;14.34;100.00;101816.66;6253912;28;20053;-84
2021/10/27 15:52:14;;;;;;;1.92;1.08;;;;;;;14.24;100.00;101825.16;6253297;28;20477;-85
2021/10/27 15:55:15;;;;;;;3.10;1.60;;;;;;;14.23;100.00;101821.66;6253031;28;20053;-84
2021/10/27 15:58:17;;;;;;;2.17;1.00;;;;;;;14.19;100.00;101833.31;6253650;28;20045;-86
2021/10/27 16:01:20;;;;;;;1.60;1.48;;;;;;;14.15;100.00;101829.97;6253814;28;20057;-86
2021/10/27 16:04:21;;;;;;;2.15;1.40;;;;;;;14.17;100.00;101830.75;6252373;28;20053;-86
2021/10/27 16:07:24;;;;;;;1.38;1.02;;;;;;;14.17;100.00;101840.44;6250920;28;20123;-86
2021/10/27 16:10:26;;;;;;;1.45;1.13;;;;;;;14.14;100.00;101838.84;6252131;28;20061;-86
2021/10/27 16:13:27;;;;;;;1.23;1.13;;;;;;;14.08;100.00;101841.81;6252423;28;20060;-86
2021/10/27 16:16:30;;;;;;;2.90;1.30;;;;;;;14.04;100.00;101842.03;6252370;28;20052;-85
2021/10/27 16:19:32;;;;;;;2.30;1.40;;;;;;;14.09;100.00;101850.59;6253180;28;20405;-86
2021/10/27 16:22:34;;;;;;;2.58;1.35;;;;;;;14.08;100.00;101840.91;6252995;28;20052;-86
2021/10/27 16:25:35;;;;;;;6.00;1.20;;;;;;;14.02;100.00;101847.38;6252079;28;20056;-86
2021/10/27 16:28:36;;;;;;;2.17;1.38;;;;;;;14.03;100.00;101843.78;6252606;28;20049;-85
2021/10/27 16:31:40;;;;;;;1.98;1.30;;;;;;;13.98;100.00;101851.09;6257410;28;20056;-87
2021/10/27 16:34:41;;;;;;;2.05;1.70;;;;;;;13.95;100.00;101853.91;6261809;28;20063;-85
2021/10/27 16:37:43;;;;;;;4.53;2.45;;;;;;;13.96;100.00;101848.56;6266246;28;20084;-84
2021/10/27 16:40:44;;;;;;;2.33;1.23;;;;;;;13.89;100.00;101847.13;6277230;28;20060;-85
2021/10/27 16:43:46;;;;;;;2.20;1.50;;;;;;;13.87;100.00;101842.88;6270409;28;20045;-84
2021/10/27 16:46:49;;;;;;;1.83;1.58;;;;;;;13.87;100.00;101838.44;6252136;28;20120;-81
2021/10/27 16:49:51;;;;;;;3.90;2.75;;;;;;;13.84;100.00;101840.38;6248107;28;20045;-82
2021/10/27 16:52:56;;;;;;;1.92;0.93;;;;;;;13.80;100.00;101847.59;6249249;28;20489;-81
2021/10/27 16:55:58;;;;;;;2.45;1.38;;;;;;;13.77;100.00;101858.31;6263217;28;20485;-80
2021/10/27 16:59:01;;;;;;;2.35;1.30;;;;;;;13.70;100.00;101863.03;6248295;28;20057;-83
2021/10/27 17:02:04;;;;;;;1.88;1.40;;;;;;;13.64;100.00;101855.41;6256781;28;20049;-83
2021/10/27 17:05:06;;;;;;;5.07;1.75;;;;;;;13.69;100.00;101853.41;6256961;28;20041;-82
2021/10/27 17:08:08;;;;;;;2.78;1.33;;;;;;;13.66;100.00;101864.09;6248455;28;20130;-81
2021/10/27 17:11:10;;;;;;;2.30;1.48;;;;;;;13.60;100.00;101861.78;6249699;28;20049;-82
2021/10/27 17:14:11;;;;;;;1.35;1.15;;;;;;;13.59;100.00;101872.44;6248114;28;20049;-84
2021/10/27 17:17:14;;;;;;;4.03;1.25;;;;;;;13.55;100.00;101871.72;6248232;28;20060;-84
2021/10/27 17:20:18;;;;;;;1.60;1.10;;;;;;;13.52;100.00;101869.19;6248081;28;20497;-83
2021/10/27 17:23:28;;;;;;;1.77;1.33;;;;;;;13.49;100.00;101874.66;6247938;28;20526;-83